Time;durP1;ratioP1;P1;durP2;ratioP2;P2;SDS_P1;SDS_P2;PMS_P1;PMS_P2;Temp;Humidity;BMP_temperature;BMP_pressure;BME280_temperature;BME280_humidity;BME280_pressure;Samples;Min_cycle;Max_cycle;Signal;HPM_P1;HPM_P2
2021/05/10 00:02:00;;;;;;;2.08;1.30;;;;;;;10.62;51.42;99917.09;5111692;28;20451;-76
2021/05/10 00:04:25;;;;;;;1.40;1.30;;;;;;;10.57;51.36;99924.03;5112990;28;20015;-77
2021/05/10 00:06:51;;;;;;;1.85;1.73;;;;;;;10.58;51.20;99924.84;5112027;27;20019;-73
2021/05/10 00:09:16;;;;;;;1.60;1.50;;;;;;;10.56;51.08;99916.28;5112966;28;20015;-77
2021/05/10 00:11:41;;;;;;;2.42;1.40;;;;;;;10.58;51.00;99930.19;5112931;28;20024;-77
2021/05/10 00:14:07;;;;;;;2.42;1.50;;;;;;;10.55;50.82;99925.34;5112051;28;20015;-77
2021/05/10 00:16:33;;;;;;;1.60;1.20;;;;;;;10.49;50.15;99919.16;5113674;28;20172;-86
2021/05/10 00:19:00;;;;;;;3.70;1.45;;;;;;;10.46;50.60;99919.66;5095478;28;20023;-91
2021/05/10 00:21:25;;;;;;;1.42;1.10;;;;;;;10.43;49.55;99925.50;5111129;28;20023;-87
2021/05/10 00:23:51;;;;;;;1.00;0.90;;;;;;;10.44;49.87;99921.78;5111745;28;20019;-83
2021/05/10 00:26:17;;;;;;;2.72;1.35;;;;;;;10.40;49.61;99921.47;5104382;28;20455;-80
2021/05/10 00:28:42;;;;;;;2.17;1.20;;;;;;;10.41;49.42;99919.59;5092211;28;20166;-79
2021/05/10 00:31:08;;;;;;;1.30;1.20;;;;;;;10.45;48.98;99923.41;5111757;28;20406;-80
2021/05/10 00:33:33;;;;;;;1.20;1.20;;;;;;;10.45;49.48;99920.72;5110517;28;20386;-81
2021/05/10 00:35:59;;;;;;;2.13;1.42;;;;;;;10.45;49.27;99920.72;5110010;28;20023;-86
2021/05/10 00:38:25;;;;;;;1.40;1.25;;;;;;;10.43;48.96;99920.16;5110775;28;20118;-80
2021/05/10 00:40:50;;;;;;;1.45;1.05;;;;;;;10.36;48.10;99917.72;5110726;28;20123;-76
2021/05/10 00:43:16;;;;;;;3.47;1.00;;;;;;;10.30;47.93;99915.19;5110943;28;20023;-77
2021/05/10 00:45:41;;;;;;;1.40;1.10;;;;;;;10.25;47.61;99916.78;5111767;28;20035;-79
2021/05/10 00:48:07;;;;;;;1.63;1.40;;;;;;;10.21;48.37;99909.50;5110953;28;20015;-83
2021/05/10 00:50:33;;;;;;;2.63;1.05;;;;;;;10.16;48.47;99906.78;5109633;28;20106;-82
2021/05/10 00:52:59;;;;;;;1.38;1.27;;;;;;;10.15;48.63;99907.84;5110808;28;20124;-80
2021/05/10 00:55:26;;;;;;;5.20;1.55;;;;;;;10.12;49.01;99908.31;5110178;28;20024;-83
2021/05/10 00:57:54;;;;;;;2.28;1.58;;;;;;;10.12;48.99;99897.63;5109733;28;20020;-82
2021/05/10 01:00:22;;;;;;;5.00;1.42;;;;;;;10.10;49.05;99900.56;5110648;28;20027;-82
2021/05/10 01:02:48;;;;;;;1.65;1.48;;;;;;;10.10;49.92;99911.25;5110145;28;20035;-80
2021/05/10 01:05:15;;;;;;;1.40;1.30;;;;;;;10.05;50.07;99903.97;5110541;28;20032;-81
2021/05/10 01:07:41;;;;;;;1.30;1.20;;;;;;;10.03;50.47;99900.78;5110083;28;20028;-82
2021/05/10 01:10:12;;;;;;;1.60;1.08;;;;;;;9.97;50.56;99898.28;5110528;28;20118;-80
2021/05/10 01:12:38;;;;;;;2.05;1.25;;;;;;;9.96;50.89;99902.84;5110283;28;20027;-81
2021/05/10 01:15:11;;;;;;;1.98;1.60;;;;;;;9.94;51.45;99902.25;5110372;28;20091;-82
2021/05/10 01:17:37;;;;;;;2.33;2.05;;;;;;;9.89;52.22;99908.34;5109582;28;20035;-84
2021/05/10 01:20:08;;;;;;;1.20;1.10;;;;;;;9.84;52.76;99900.28;5109940;28;20110;-84
2021/05/10 01:22:45;;;;;;;1.20;1.00;;;;;;;9.78;53.64;99898.63;5110676;28;20026;-84
2021/05/10 01:25:14;;;;;;;1.65;1.50;;;;;;;9.70;54.36;99891.81;5110455;28;20465;-84
2021/05/10 01:27:41;;;;;;;1.65;1.55;;;;;;;9.65;55.19;99893.66;5110421;28;20043;-82
2021/05/10 01:30:10;;;;;;;2.65;1.42;;;;;;;9.57;55.68;99898.38;5110358;28;20015;-83
2021/05/10 01:32:37;;;;;;;1.63;1.52;;;;;;;9.48;56.13;99893.72;5110478;28;20023;-84
2021/05/10 01:42:08;;;;;;;2.30;1.77;;;;;;;9.48;56.51;99894.50;5029760;28;20544;-91
2021/05/10 01:45:13;;;;;;;2.20;1.55;;;;;;;9.46;56.68;99885.94;5032338;28;20029;-90
2021/05/10 01:48:32;;;;;;;2.78;1.35;;;;;;;9.49;56.91;99890.78;5103774;28;20547;-92
2021/05/10 01:54:50;;;;;;;2.95;1.58;;;;;;;9.50;57.40;99884.38;5116444;28;20074;-79
2021/05/10 01:57:17;;;;;;;6.75;2.83;;;;;;;9.50;57.65;99883.59;5109930;28;20368;-80
2021/05/10 01:59:42;;;;;;;4.60;2.95;;;;;;;9.49;57.57;99885.44;5093284;28;20541;-79
2021/05/10 02:02:08;;;;;;;1.98;1.67;;;;;;;9.48;57.67;99888.38;5112147;28;20098;-86
2021/05/10 02:08:45;;;;;;;3.90;1.70;;;;;;;9.48;57.83;99893.72;5096459;28;20043;-93
2021/05/10 02:11:11;;;;;;;3.60;1.90;;;;;;;9.49;57.78;99895.31;5095187;28;20024;-88
2021/05/10 02:13:50;;;;;;;1.70;1.58;;;;;;;9.48;57.26;99893.72;5103731;28;20035;-94
2021/05/10 02:16:24;;;;;;;1.60;1.27;;;;;;;9.51;57.21;99890.53;5115280;28;20030;-92
2021/05/10 02:19:28;;;;;;;3.53;1.92;;;;;;;9.52;57.07;99898.31;5103286;28;20036;-93
2021/05/10 02:21:54;;;;;;;1.27;1.15;;;;;;;9.52;56.72;99894.81;5120685;28;20035;-94
2021/05/10 02:24:19;;;;;;;4.28;1.58;;;;;;;9.50;56.66;99895.06;5125277;28;20390;-91
2021/05/10 02:26:45;;;;;;;2.35;1.80;;;;;;;9.48;56.54;99891.03;5113268;28;20102;-88
2021/05/10 02:29:23;;;;;;;3.75;1.40;;;;;;;9.44;56.62;99890.72;5115879;28;20019;-93
2021/05/10 02:31:49;;;;;;;1.92;1.65;;;;;;;9.44;56.31;99893.41;5080671;28;20044;-91
2021/05/10 02:34:27;;;;;;;2.47;1.98;;;;;;;9.41;56.33;99892.03;5114212;28;20035;-93
2021/05/10 02:37:42;;;;;;;5.03;2.17;;;;;;;9.39;56.53;99902.13;5097013;28;20028;-92
2021/05/10 02:41:23;;;;;;;2.17;1.30;;;;;;;9.34;56.67;99910.09;5090894;28;20028;-95
2021/05/10 02:44:30;;;;;;;2.95;1.80;;;;;;;9.31;56.12;99910.56;5105191;28;20045;-92
2021/05/10 02:47:05;;;;;;;2.45;2.10;;;;;;;9.22;56.09;99907.50;5067947;28;20043;-92
2021/05/10 02:50:18;;;;;;;3.10;1.90;;;;;;;9.17;56.46;99911.97;5114387;28;20478;-89
2021/05/10 02:52:44;;;;;;;3.03;1.63;;;;;;;9.13;56.56;99920.47;5106295;28;20031;-80
2021/05/10 02:55:10;;;;;;;3.53;1.92;;;;;;;9.06;56.49;99913.69;5113158;28;20015;-79
2021/05/10 02:57:36;;;;;;;2.40;2.20;;;;;;;9.04;56.69;99919.25;5113272;28;20035;-79
2021/05/10 03:00:08;;;;;;;2.78;2.30;;;;;;;8.98;56.61;99917.56;5113652;28;20011;-79
2021/05/10 03:02:33;;;;;;;5.05;3.28;;;;;;;8.94;57.08;99921.78;5114534;28;20044;-79
2021/05/10 03:04:59;;;;;;;3.55;3.25;;;;;;;8.91;57.39;99922.25;5114879;28;20196;-79
2021/05/10 03:07:24;;;;;;;4.75;3.30;;;;;;;8.86;57.49;99924.84;5114174;28;20072;-79
2021/05/10 03:09:50;;;;;;;2.70;2.13;;;;;;;8.84;57.54;99932.28;5116765;28;20023;-79
2021/05/10 03:12:15;;;;;;;3.67;2.15;;;;;;;8.83;57.70;99925.34;5114710;28;20024;-79
2021/05/10 03:14:41;;;;;;;5.53;1.88;;;;;;;8.90;57.63;99925.97;5115442;28;20012;-79
2021/05/10 03:17:06;;;;;;;4.45;1.60;;;;;;;9.01;57.86;99926.94;5115297;28;20028;-78
2021/05/10 03:19:31;;;;;;;2.67;2.10;;;;;;;9.21;57.64;99924.56;5114933;28;20035;-81
2021/05/10 03:21:57;;;;;;;3.17;2.47;;;;;;;9.49;57.25;99932.72;5112678;28;20482;-79
2021/05/10 03:24:23;;;;;;;4.78;2.05;;;;;;;9.86;56.76;99924.06;5112379;28;20016;-79
2021/05/10 03:26:48;;;;;;;4.63;1.70;;;;;;;10.21;55.77;99915.63;5111602;28;20043;-79
2021/05/10 03:29:13;;;;;;;1.80;1.70;;;;;;;10.64;54.88;99926.50;5112110;28;20023;-84
2021/05/10 03:31:39;;;;;;;4.80;1.77;;;;;;;11.11;53.66;99921.50;5111525;28;20043;-84
2021/05/10 03:34:04;;;;;;;2.42;2.00;;;;;;;11.60;52.65;99923.13;5112312;28;20019;-83
2021/05/10 03:36:30;;;;;;;2.35;1.30;;;;;;;12.09;51.14;99914.72;5112230;28;20023;-90
2021/05/10 03:38:56;;;;;;;2.53;1.83;;;;;;;12.59;49.80;99920.44;5112709;28;20382;-86
2021/05/10 03:41:22;;;;;;;2.05;1.95;;;;;;;13.08;48.21;99926.34;5112793;28;20031;-83
2021/05/10 03:43:48;;;;;;;2.47;2.30;;;;;;;13.54;46.87;99918.19;5111963;28;20409;-86
2021/05/10 03:46:14;;;;;;;3.25;1.52;;;;;;;13.95;45.90;99917.22;5110897;28;20573;-86
2021/05/10 03:48:40;;;;;;;2.95;1.70;;;;;;;14.35;44.76;99914.56;5111792;28;20016;-85
2021/05/10 03:51:05;;;;;;;3.20;1.85;;;;;;;14.80;43.45;99917.22;5112011;28;20450;-79
2021/05/10 03:53:30;;;;;;;6.47;1.80;;;;;;;15.23;42.06;99924.63;5111673;28;20026;-79
2021/05/10 03:55:56;;;;;;;4.43;1.92;;;;;;;15.50;41.81;99927.56;5111359;28;20020;-83
2021/05/10 03:58:21;;;;;;;4.10;2.00;;;;;;;15.86;40.15;99931.75;5111319;28;20169;-86
2021/05/10 04:00:47;;;;;;;3.25;2.50;;;;;;;16.16;40.31;99935.13;5111510;28;20398;-88
2021/05/10 04:03:14;;;;;;;2.75;2.55;;;;;;;16.50;39.21;99934.09;5111766;28;20393;-81
2021/05/10 04:15:46;;;;;;;2.53;2.17;;;;;;;18.52;35.50;99933.78;5113104;28;20035;-90
2021/05/10 04:18:11;;;;;;;3.55;2.20;;;;;;;18.97;34.60;99938.41;5111183;28;20375;-78
2021/05/10 04:20:37;;;;;;;3.00;1.80;;;;;;;19.44;34.11;99929.84;5110223;28;20023;-84
2021/05/10 04:23:02;;;;;;;2.88;1.70;;;;;;;19.84;33.57;99938.75;5110168;28;20431;-79
2021/05/10 04:25:28;;;;;;;11.20;2.55;;;;;;;20.20;32.62;99928.78;5110306;28;20024;-79
2021/05/10 04:27:54;;;;;;;3.13;2.08;;;;;;;20.58;32.40;99933.53;5110918;28;20386;-79
2021/05/10 04:30:19;;;;;;;2.97;1.77;;;;;;;20.91;31.75;99933.03;5110916;28;20057;-79
2021/05/10 04:32:45;;;;;;;3.75;2.83;;;;;;;21.17;31.37;99929.44;5110660;28;20020;-79
2021/05/10 04:35:10;;;;;;;5.43;2.60;;;;;;;21.42;30.94;99930.47;5110765;28;20073;-79
2021/05/10 04:37:36;;;;;;;3.33;2.22;;;;;;;21.70;30.39;99938.19;5110673;28;20015;-79
2021/05/10 04:40:03;;;;;;;2.38;1.52;;;;;;;21.93;30.02;99937.88;5110547;28;20459;-79
2021/05/10 04:42:29;;;;;;;2.97;1.77;;;;;;;22.11;29.91;99938.56;5110585;28;20495;-79
2021/05/10 04:44:54;;;;;;;5.95;2.05;;;;;;;22.28;29.59;99934.13;5110464;28;20040;-79
2021/05/10 04:47:20;;;;;;;3.47;1.70;;;;;;;22.54;29.53;99936.63;5111801;28;20015;-79
2021/05/10 04:49:45;;;;;;;6.35;2.10;;;;;;;22.64;29.27;99935.41;5111802;28;20027;-79
2021/05/10 04:52:11;;;;;;;3.28;2.08;;;;;;;22.80;28.97;99936.41;5110654;28;20084;-80
2021/05/10 04:54:36;;;;;;;3.30;2.17;;;;;;;22.94;28.79;99932.56;5110250;28;20024;-79
2021/05/10 04:57:02;;;;;;;2.97;2.65;;;;;;;23.09;28.48;99933.84;5110600;28;20482;-79
2021/05/10 04:59:27;;;;;;;5.15;2.63;;;;;;;23.22;28.78;99931.94;5110770;28;20027;-80
2021/05/10 05:01:52;;;;;;;8.10;3.10;;;;;;;23.43;28.81;99937.31;5110555;28;20027;-80
2021/05/10 05:04:18;;;;;;;4.10;2.55;;;;;;;23.62;28.23;99936.72;5110650;28;20050;-80
2021/05/10 05:06:43;;;;;;;3.60;2.50;;;;;;;23.88;28.13;99935.56;5110447;28;20691;-79
2021/05/10 05:09:09;;;;;;;7.70;2.97;;;;;;;24.11;27.76;99936.69;5110751;28;20028;-79
2021/05/10 05:11:34;;;;;;;5.13;3.30;;;;;;;24.26;27.56;99937.88;5110725;28;20015;-80
2021/05/10 05:14:00;;;;;;;4.28;3.03;;;;;;;24.37;27.33;99940.91;5110396;28;20030;-80
2021/05/10 05:16:25;;;;;;;5.13;2.67;;;;;;;24.46;27.61;99930.66;5110199;28;20374;-80
2021/05/10 05:18:51;;;;;;;5.18;2.70;;;;;;;24.60;27.47;99940.38;5110318;28;20023;-80
2021/05/10 05:21:16;;;;;;;4.95;2.85;;;;;;;24.71;27.62;99949.69;5110473;28;20024;-79
2021/05/10 05:23:41;;;;;;;6.13;2.67;;;;;;;24.87;27.45;99940.72;5110201;28;20024;-79
2021/05/10 05:26:07;;;;;;;2.80;2.53;;;;;;;25.07;27.08;99942.44;5110386;28;20028;-80
2021/05/10 05:28:32;;;;;;;4.35;3.05;;;;;;;25.30;27.17;99939.06;5110475;28;20176;-79
2021/05/10 05:31:00;;;;;;;5.03;2.80;;;;;;;25.42;27.07;99930.78;5109874;28;20047;-80
2021/05/10 05:33:25;;;;;;;6.25;3.03;;;;;;;25.60;26.95;99941.38;5110421;28;20038;-80
2021/05/10 05:35:54;;;;;;;6.60;3.55;;;;;;;25.77;26.27;99939.38;5110074;28;20032;-80
2021/05/10 05:38:20;;;;;;;8.02;3.58;;;;;;;25.94;25.87;99941.75;5110089;28;20076;-80
2021/05/10 05:40:46;;;;;;;6.28;2.80;;;;;;;26.00;26.31;99948.53;5109910;28;20027;-80
2021/05/10 05:43:13;;;;;;;5.93;3.38;;;;;;;26.01;26.12;99944.63;5111742;28;20542;-80
2021/05/10 05:45:39;;;;;;;3.40;2.80;;;;;;;26.10;26.17;99938.97;5110022;28;20152;-80
2021/05/10 05:48:08;;;;;;;5.10;2.60;;;;;;;26.23;26.00;99944.31;5110090;28;20352;-80
2021/05/10 05:50:34;;;;;;;4.65;2.33;;;;;;;26.30;25.69;99942.50;5109723;28;20027;-79
2021/05/10 05:53:00;;;;;;;4.43;2.70;;;;;;;26.46;25.51;99936.16;5109781;28;20043;-79
2021/05/10 05:55:27;;;;;;;4.05;3.42;;;;;;;26.44;25.09;99939.28;5110272;28;20054;-80
2021/05/10 05:57:53;;;;;;;2.97;2.67;;;;;;;26.16;25.09;99943.00;5110124;28;20023;-79
2021/05/10 06:00:18;;;;;;;4.13;2.85;;;;;;;25.81;25.33;99943.00;5110182;28;20467;-79
2021/05/10 06:02:44;;;;;;;2.75;2.30;;;;;;;25.29;25.57;99937.47;5109662;28;20051;-79
2021/05/10 06:05:11;;;;;;;2.70;2.50;;;;;;;24.98;25.44;99935.53;5110020;28;20092;-79
2021/05/10 06:07:41;;;;;;;1.80;1.70;;;;;;;24.57;25.39;99938.34;5110251;28;20072;-80
2021/05/10 06:10:08;;;;;;;2.20;1.50;;;;;;;24.11;25.50;99933.94;5111633;28;20028;-79
2021/05/10 06:12:34;;;;;;;2.10;1.73;;;;;;;23.55;26.07;99939.25;5111337;28;20050;-79
2021/05/10 06:14:59;;;;;;;1.77;1.40;;;;;;;23.21;26.49;99930.38;5111586;28;20028;-79
2021/05/10 06:17:25;;;;;;;2.15;1.95;;;;;;;22.74;27.80;99935.00;5111272;28;20051;-79
2021/05/10 06:19:50;;;;;;;3.28;1.65;;;;;;;22.35;26.94;99932.44;5111546;28;20043;-80
2021/05/10 06:22:16;;;;;;;2.33;2.13;;;;;;;21.94;28.55;99938.69;5110721;28;20493;-79
2021/05/10 06:24:41;;;;;;;3.17;1.95;;;;;;;21.65;29.65;99929.41;5110566;28;20016;-79
2021/05/10 06:27:07;;;;;;;2.47;1.60;;;;;;;21.37;28.85;99929.84;5110425;28;20382;-79
2021/05/10 06:29:32;;;;;;;3.20;1.65;;;;;;;21.04;28.63;99935.88;5112939;28;20019;-79
2021/05/10 06:31:57;;;;;;;1.27;1.17;;;;;;;20.72;28.85;99927.94;5113471;28;20167;-80
2021/05/10 06:34:23;;;;;;;1.75;1.10;;;;;;;20.47;28.43;99932.28;5113530;28;20019;-79
2021/05/10 06:36:48;;;;;;;2.53;1.45;;;;;;;20.09;29.03;99936.44;5113502;28;20471;-79
2021/05/10 06:39:14;;;;;;;1.77;1.20;;;;;;;19.85;28.76;99942.28;5114828;28;20425;-79
2021/05/10 06:41:39;;;;;;;3.72;1.30;;;;;;;19.49;28.64;99933.22;5113516;28;20042;-79
2021/05/10 06:44:05;;;;;;;1.13;0.88;;;;;;;19.24;30.07;99929.28;5113100;28;20015;-79
2021/05/10 06:46:30;;;;;;;1.40;1.20;;;;;;;19.09;30.70;99929.69;5113179;28;20470;-79
2021/05/10 06:48:56;;;;;;;4.00;1.10;;;;;;;18.89;28.17;99929.09;5112987;28;20019;-79
2021/05/10 06:51:21;;;;;;;1.48;1.38;;;;;;;18.70;28.34;99931.97;5113142;28;20026;-79
2021/05/10 06:53:46;;;;;;;0.77;0.65;;;;;;;18.64;28.70;99928.63;5112936;28;20028;-79
2021/05/10 06:56:12;;;;;;;1.50;1.20;;;;;;;18.63;30.04;99929.72;5112924;28;20028;-79
2021/05/10 06:58:37;;;;;;;1.60;1.50;;;;;;;18.50;30.59;99927.88;5113063;28;20023;-81
2021/05/10 07:01:03;;;;;;;3.90;1.60;;;;;;;18.41;32.36;99919.69;5112722;28;20027;-81
2021/05/10 07:03:28;;;;;;;4.85;2.08;;;;;;;18.54;33.32;99924.25;5112796;28;20023;-79
2021/05/10 07:05:53;;;;;;;1.70;1.60;;;;;;;18.41;33.16;99914.28;5112634;28;20490;-78
2021/05/10 07:08:19;;;;;;;1.75;1.25;;;;;;;18.15;32.92;99917.56;5112801;28;20027;-78
2021/05/10 07:10:47;;;;;;;2.05;1.55;;;;;;;18.02;32.31;99921.91;5112419;28;20016;-77
2021/05/10 07:13:12;;;;;;;1.70;1.38;;;;;;;17.91;33.05;99915.09;5112738;28;20085;-77
2021/05/10 07:15:38;;;;;;;3.10;1.25;;;;;;;17.87;33.77;99923.00;5112830;28;20539;-78
2021/05/10 07:18:05;;;;;;;2.25;1.55;;;;;;;17.67;34.04;99915.31;5112488;28;20385;-80
2021/05/10 07:20:31;;;;;;;1.63;1.43;;;;;;;17.57;34.55;99917.13;5112644;28;20038;-79
2021/05/10 07:22:57;;;;;;;1.83;1.40;;;;;;;17.51;34.29;99906.72;5112668;28;20027;-79
2021/05/10 07:25:22;;;;;;;2.30;1.35;;;;;;;17.35;33.25;99908.91;5112686;28;20416;-78
2021/05/10 07:27:48;;;;;;;3.95;1.67;;;;;;;17.22;34.20;99918.63;5113801;28;20079;-78
2021/05/10 07:30:15;;;;;;;4.10;1.50;;;;;;;17.18;33.30;99910.28;5113104;28;20024;-79
2021/05/10 07:32:40;;;;;;;4.10;1.52;;;;;;;17.14;33.41;99909.31;5113064;28;20038;-78
2021/05/10 07:35:06;;;;;;;1.70;1.58;;;;;;;17.03;33.80;99911.38;5113318;28;20106;-78
2021/05/10 07:37:31;;;;;;;2.00;1.45;;;;;;;17.01;35.39;99912.78;5113560;28;20026;-78
2021/05/10 07:39:56;;;;;;;3.70;1.90;;;;;;;17.08;35.87;99916.69;5112999;28;20015;-78
2021/05/10 07:42:22;;;;;;;1.95;1.45;;;;;;;17.06;33.59;99907.28;5112120;28;20026;-78
2021/05/10 07:44:47;;;;;;;1.70;1.08;;;;;;;17.10;33.78;99906.41;5112146;28;20028;-78
2021/05/10 07:47:13;;;;;;;3.30;1.40;;;;;;;17.10;34.59;99901.00;5112008;28;20165;-78
2021/05/10 07:49:38;;;;;;;1.33;1.23;;;;;;;17.11;33.70;99896.38;5112118;28;20023;-78
2021/05/10 07:52:04;;;;;;;2.42;1.27;;;;;;;17.06;33.01;99893.78;5111744;28;20042;-78
2021/05/10 07:54:29;;;;;;;1.40;1.30;;;;;;;17.06;34.35;99901.88;5111929;28;20114;-78
2021/05/10 07:56:56;;;;;;;2.38;1.50;;;;;;;17.04;33.98;99899.47;5111640;28;20023;-78
2021/05/10 07:59:21;;;;;;;1.42;1.33;;;;;;;17.06;32.60;99896.47;5111861;28;20046;-79
2021/05/10 08:01:48;;;;;;;0.75;0.75;;;;;;;16.91;33.45;99902.94;5112543;28;20454;-79
2021/05/10 08:04:14;;;;;;;0.90;0.90;;;;;;;16.90;33.78;99893.22;5111826;28;20041;-79
2021/05/10 08:06:39;;;;;;;1.25;1.15;;;;;;;16.97;33.95;99899.06;5111601;28;20517;-78
2021/05/10 08:09:05;;;;;;;1.88;0.60;;;;;;;17.06;34.59;99899.19;5111287;28;20123;-80
2021/05/10 08:11:31;;;;;;;3.45;1.40;;;;;;;16.99;33.04;99896.88;5111499;28;20019;-79
2021/05/10 08:13:57;;;;;;;1.48;0.93;;;;;;;17.04;34.06;99888.69;5111196;28;20099;-80
2021/05/10 08:16:23;;;;;;;0.93;0.82;;;;;;;17.05;33.16;99886.75;5111237;28;20020;-79
2021/05/10 08:18:48;;;;;;;1.95;1.48;;;;;;;16.99;34.58;99882.56;5111035;28;20016;-79
2021/05/10 08:21:14;;;;;;;1.60;1.42;;;;;;;17.05;35.09;99881.34;5111305;28;20026;-78
2021/05/10 08:23:39;;;;;;;1.60;1.45;;;;;;;17.14;33.82;99884.97;5111291;28;20026;-79
2021/05/10 08:26:05;;;;;;;1.33;1.23;;;;;;;17.13;32.90;99886.06;5111109;28;20027;-79
2021/05/10 08:28:31;;;;;;;1.52;1.08;;;;;;;17.16;34.11;99881.97;5112894;28;20019;-79
2021/05/10 08:30:57;;;;;;;6.72;1.23;;;;;;;17.22;33.43;99875.38;5110728;28;20047;-79
2021/05/10 08:33:22;;;;;;;3.13;1.85;;;;;;;17.20;32.97;99880.25;5111036;28;20027;-78
2021/05/10 08:35:48;;;;;;;5.57;1.73;;;;;;;17.22;33.92;99876.19;5112332;28;20102;-79
2021/05/10 08:38:14;;;;;;;1.92;1.42;;;;;;;17.16;33.29;99874.66;5110754;28;20055;-79
2021/05/10 08:40:39;;;;;;;6.38;1.65;;;;;;;17.13;33.78;99875.25;5110991;28;20015;-78
2021/05/10 08:43:22;;;;;;;2.20;1.50;;;;;;;17.04;33.49;99869.75;5110798;28;20019;-79
2021/05/10 08:45:54;;;;;;;1.60;1.10;;;;;;;17.03;32.93;99878.97;5110716;28;20027;-79
2021/05/10 08:48:21;;;;;;;3.22;1.48;;;;;;;17.01;33.05;99866.84;5110916;28;20031;-79
2021/05/10 08:50:46;;;;;;;1.15;1.05;;;;;;;17.00;33.55;99865.25;5110585;28;20111;-79
2021/05/10 08:53:13;;;;;;;4.32;1.35;;;;;;;17.06;33.53;99859.44;5110731;28;20126;-79
2021/05/10 08:55:39;;;;;;;3.47;1.77;;;;;;;17.09;34.84;99866.94;5110656;28;20398;-79
2021/05/10 08:58:07;;;;;;;2.63;1.42;;;;;;;17.23;33.17;99860.75;5110419;28;20015;-79
2021/05/10 09:00:32;;;;;;;1.73;1.27;;;;;;;17.19;33.86;99868.66;5110307;28;20019;-79
2021/05/10 09:03:10;;;;;;;3.40;1.67;;;;;;;17.20;32.71;99856.75;5110380;28;20028;-79
2021/05/10 09:05:46;;;;;;;2.47;1.50;;;;;;;17.24;33.33;99844.22;5110440;28;20020;-79
2021/05/10 09:08:12;;;;;;;2.13;1.52;;;;;;;17.19;33.72;99849.75;5110300;28;20035;-79
2021/05/10 09:10:37;;;;;;;4.38;1.80;;;;;;;17.20;34.04;99851.34;5110580;28;20023;-80
2021/05/10 09:13:03;;;;;;;3.33;1.88;;;;;;;17.22;34.30;99842.94;5110275;28;20133;-80
2021/05/10 09:15:36;;;;;;;2.97;1.90;;;;;;;17.30;34.51;99839.53;5110438;28;20016;-80
2021/05/10 09:18:05;;;;;;;2.72;1.77;;;;;;;17.33;35.13;99844.31;5110204;28;20134;-79
2021/05/10 09:20:32;;;;;;;2.60;2.25;;;;;;;17.36;33.56;99840.25;5110413;28;20016;-79
2021/05/10 09:23:04;;;;;;;3.33;1.65;;;;;;;17.35;34.68;99823.19;5110162;28;20031;-79
2021/05/10 09:25:43;;;;;;;3.92;1.80;;;;;;;17.44;35.28;99834.09;5110188;28;20027;-79
2021/05/10 09:28:18;;;;;;;2.08;1.88;;;;;;;17.39;34.25;99821.50;5109948;28;20179;-79
2021/05/10 09:30:45;;;;;;;2.17;1.98;;;;;;;17.34;33.89;99823.50;5110023;28;20051;-78
2021/05/10 09:33:23;;;;;;;2.95;1.92;;;;;;;17.33;34.67;99819.19;5110133;28;20076;-78
2021/05/10 09:35:50;;;;;;;7.88;2.33;;;;;;;17.24;33.70;99809.09;5110304;28;20466;-79
2021/05/10 09:38:20;;;;;;;2.45;2.25;;;;;;;17.22;33.91;99811.31;5110306;28;20027;-78
2021/05/10 09:40:48;;;;;;;7.40;2.05;;;;;;;17.22;34.63;99811.31;5111638;28;20047;-78
2021/05/10 09:43:19;;;;;;;2.35;2.10;;;;;;;17.25;35.18;99812.59;5110041;28;20024;-78
2021/05/10 09:45:47;;;;;;;2.33;2.13;;;;;;;17.21;35.33;99803.47;5110272;28;20031;-78
2021/05/10 09:48:14;;;;;;;;;;;;;;;17.27;34.57;99800.38;5110122;28;20024;-78
2021/05/10 09:50:43;;;;;;;9.70;1.97;;;;;;;17.28;34.53;99801.19;5110218;28;20259;-77
2021/05/10 09:53:14;;;;;;;2.65;1.90;;;;;;;17.39;34.84;99804.47;5109945;28;20055;-77
2021/05/10 09:55:46;;;;;;;1.88;1.73;;;;;;;17.32;33.72;99795.97;5110038;28;20382;-77
2021/05/10 09:58:12;;;;;;;3.83;1.70;;;;;;;17.31;33.73;99787.06;5111057;28;20054;-78
2021/05/10 10:00:39;;;;;;;6.88;2.08;;;;;;;17.34;34.73;99781.03;5109904;28;20464;-79
2021/05/10 10:03:05;;;;;;;1.80;1.52;;;;;;;17.41;34.54;99786.84;5109909;28;20031;-78
2021/05/10 10:05:33;;;;;;;2.15;1.88;;;;;;;17.40;34.28;99779.03;5114104;28;20459;-77
2021/05/10 10:07:59;;;;;;;2.13;1.55;;;;;;;17.41;35.15;99772.53;5113926;28;20020;-78
2021/05/10 10:10:24;;;;;;;3.15;1.42;;;;;;;17.42;34.57;99785.75;5113960;28;20019;-77
2021/05/10 10:12:50;;;;;;;2.20;1.95;;;;;;;17.43;34.46;99773.81;5113834;28;20053;-78
2021/05/10 10:15:15;;;;;;;1.45;1.35;;;;;;;17.46;35.15;99769.72;5113641;28;20076;-78
2021/05/10 10:17:44;;;;;;;2.67;1.70;;;;;;;17.53;34.62;99756.56;5113924;28;20110;-78
2021/05/10 10:20:10;;;;;;;2.88;2.10;;;;;;;17.61;35.14;99763.16;5113600;28;20165;-78
2021/05/10 10:22:35;;;;;;;1.60;1.50;;;;;;;17.63;33.64;99760.16;5113444;28;20110;-78
2021/05/10 10:25:03;;;;;;;2.42;1.73;;;;;;;17.61;34.60;99757.75;5113350;28;20019;-78
2021/05/10 10:27:29;;;;;;;3.50;1.70;;;;;;;17.65;32.98;99750.63;5113428;28;20023;-77
2021/05/10 10:29:56;;;;;;;1.23;1.13;;;;;;;17.64;32.06;99750.91;5113302;28;20016;-79
2021/05/10 10:32:23;;;;;;;2.33;1.23;;;;;;;17.59;32.88;99749.94;5114939;28;20048;-78
2021/05/10 10:34:50;;;;;;;1.20;1.10;;;;;;;17.58;31.16;99756.44;5113443;28;20486;-78
2021/05/10 10:37:17;;;;;;;3.13;1.25;;;;;;;17.52;31.04;99765.00;5113047;28;20034;-78
2021/05/10 10:39:56;;;;;;;0.93;0.93;;;;;;;17.53;30.45;99755.78;5113313;28;20019;-77
2021/05/10 10:42:31;;;;;;;2.80;1.00;;;;;;;17.53;30.45;99734.94;5113329;28;20023;-77
2021/05/10 10:44:58;;;;;;;1.42;1.00;;;;;;;17.51;30.89;99742.53;5113120;28;20496;-77
2021/05/10 10:47:44;;;;;;;1.23;1.13;;;;;;;17.50;31.42;99730.13;5114394;28;20112;-78
2021/05/10 10:50:24;;;;;;;1.60;1.10;;;;;;;17.60;31.51;99731.78;5113020;28;20023;-79
2021/05/10 10:52:52;;;;;;;2.80;1.10;;;;;;;17.58;32.22;99723.22;5114728;28;20433;-77
2021/05/10 10:55:30;;;;;;;0.82;0.82;;;;;;;17.59;31.39;99727.50;5113150;28;20023;-77
2021/05/10 10:58:14;;;;;;;2.47;1.40;;;;;;;17.59;31.39;99722.09;5114235;28;20026;-77
2021/05/10 11:00:59;;;;;;;1.50;1.10;;;;;;;17.56;32.30;99720.00;5114178;27;20023;-78
2021/05/10 11:03:26;;;;;;;1.95;1.25;;;;;;;17.58;32.39;99704.28;5114499;28;20020;-78
2021/05/10 11:05:53;;;;;;;3.47;1.30;;;;;;;17.55;31.29;99702.16;5112780;28;20044;-77
2021/05/10 11:08:48;;;;;;;1.45;1.17;;;;;;;17.63;31.79;99685.22;5114025;28;20031;-77
2021/05/10 11:11:34;;;;;;;1.15;1.00;;;;;;;17.70;32.24;99696.41;5104767;28;20044;-78
2021/05/10 11:14:01;;;;;;;4.53;0.98;;;;;;;17.74;30.20;99696.59;5112969;28;20470;-78
2021/05/10 11:16:55;;;;;;;1.50;1.10;;;;;;;17.80;31.05;99681.00;5112532;28;20034;-78
2021/05/10 11:19:35;;;;;;;2.85;1.27;;;;;;;17.91;30.50;99690.50;5112548;28;20026;-78
2021/05/10 11:22:03;;;;;;;1.25;0.98;;;;;;;18.05;31.82;99682.31;5113510;28;20027;-78
2021/05/10 11:24:32;;;;;;;1.38;1.27;;;;;;;18.02;28.56;99681.03;5112544;28;20023;-78
2021/05/10 11:27:01;;;;;;;1.35;1.25;;;;;;;18.07;29.12;99683.59;5112235;28;20036;-78
2021/05/10 11:29:27;;;;;;;2.75;1.38;;;;;;;18.07;29.07;99685.53;5112397;28;20023;-78
2021/05/10 11:31:54;;;;;;;1.83;1.42;;;;;;;18.10;30.00;99679.47;5112074;28;20066;-78
2021/05/10 11:34:29;;;;;;;2.05;1.30;;;;;;;18.13;29.88;99670.75;5112156;28;20367;-78
2021/05/10 11:36:56;;;;;;;3.28;1.25;;;;;;;18.22;31.15;99671.59;5112110;28;20114;-77
2021/05/10 11:39:27;;;;;;;1.90;1.33;;;;;;;18.23;30.20;99651.50;5113799;28;20474;-78
2021/05/10 11:41:59;;;;;;;2.35;1.15;;;;;;;18.29;31.02;99663.00;5111881;28;20434;-78
2021/05/10 11:44:34;;;;;;;1.38;1.27;;;;;;;18.36;29.90;99660.66;5112061;28;20029;-78
2021/05/10 11:47:00;;;;;;;1.30;1.05;;;;;;;18.37;30.86;99648.72;5113032;28;20077;-78
2021/05/10 11:49:32;;;;;;;1.27;1.17;;;;;;;18.49;30.06;99645.41;5113230;28;20019;-79
2021/05/10 11:52:21;;;;;;;1.40;1.30;;;;;;;18.53;28.66;99643.66;5111745;28;20478;-78
2021/05/10 11:54:50;;;;;;;2.55;1.30;;;;;;;18.49;28.47;99644.59;5099649;28;20049;-78
2021/05/10 11:57:19;;;;;;;;;;;;;;;18.49;28.84;99636.47;5113451;28;20028;-78
2021/05/10 11:59:47;;;;;;;1.75;1.50;;;;;;;18.47;29.01;99631.38;5111856;28;20355;-78
2021/05/10 12:02:17;;;;;;;2.08;0.90;;;;;;;18.51;29.55;99623.41;5111651;28;20015;-78
2021/05/10 12:04:57;;;;;;;3.80;1.38;;;;;;;18.55;30.23;99625.19;5111948;28;20027;-77
2021/05/10 12:07:26;;;;;;;2.85;1.20;;;;;;;18.62;29.02;99611.16;5111863;28;20360;-79